sensor_id;sensor_type;location;lat;lon;timestamp;P1;durP1;ratioP1;P2;durP2;ratioP2
27305;SDS011;14792;50.886;6.468;2023-04-06T00:00:51;31.65;;;18.55;;
27305;SDS011;14792;50.886;6.468;2023-04-06T00:03:53;28.15;;;16.42;;
27305;SDS011;14792;50.886;6.468;2023-04-06T00:06:55;34.13;;;16.90;;
27305;SDS011;14792;50.886;6.468;2023-04-06T00:09:56;31.07;;;17.77;;
27305;SDS011;14792;50.886;6.468;2023-04-06T00:12:58;27.55;;;16.62;;
27305;SDS011;14792;50.886;6.468;2023-04-06T00:15:59;32.83;;;16.97;;
27305;SDS011;14792;50.886;6.468;2023-04-06T00:19:01;32.13;;;18.15;;
27305;SDS011;14792;50.886;6.468;2023-04-06T00:22:02;35.20;;;19.80;;
27305;SDS011;14792;50.886;6.468;2023-04-06T00:25:04;32.65;;;18.00;;
27305;SDS011;14792;50.886;6.468;2023-04-06T00:28:06;33.30;;;17.60;;
27305;SDS011;14792;50.886;6.468;2023-04-06T00:31:07;34.88;;;17.62;;
27305;SDS011;14792;50.886;6.468;2023-04-06T00:34:09;37.83;;;18.20;;
27305;SDS011;14792;50.886;6.468;2023-04-06T00:37:11;35.92;;;17.42;;
27305;SDS011;14792;50.886;6.468;2023-04-06T00:40:12;38.42;;;18.62;;
27305;SDS011;14792;50.886;6.468;2023-04-06T00:43:14;30.40;;;18.15;;
27305;SDS011;14792;50.886;6.468;2023-04-06T00:46:15;32.60;;;19.87;;
27305;SDS011;14792;50.886;6.468;2023-04-06T00:49:17;37.63;;;20.23;;
27305;SDS011;14792;50.886;6.468;2023-04-06T00:52:18;38.10;;;21.73;;
27305;SDS011;14792;50.886;6.468;2023-04-06T00:55:20;37.33;;;20.50;;
27305;SDS011;14792;50.886;6.468;2023-04-06T00:58:22;39.75;;;20.92;;
27305;SDS011;14792;50.886;6.468;2023-04-06T01:01:23;42.08;;;21.73;;
27305;SDS011;14792;50.886;6.468;2023-04-06T01:04:25;35.88;;;20.37;;
27305;SDS011;14792;50.886;6.468;2023-04-06T01:07:29;36.63;;;19.87;;
27305;SDS011;14792;50.886;6.468;2023-04-06T01:10:31;33.65;;;18.85;;
27305;SDS011;14792;50.886;6.468;2023-04-06T01:13:32;37.45;;;19.27;;
27305;SDS011;14792;50.886;6.468;2023-04-06T01:16:34;31.40;;;17.40;;
27305;SDS011;14792;50.886;6.468;2023-04-06T01:19:36;36.65;;;18.37;;
27305;SDS011;14792;50.886;6.468;2023-04-06T01:22:37;33.18;;;17.98;;
27305;SDS011;14792;50.886;6.468;2023-04-06T01:25:39;30.85;;;18.23;;
27305;SDS011;14792;50.886;6.468;2023-04-06T01:28:40;34.60;;;18.25;;
27305;SDS011;14792;50.886;6.468;2023-04-06T01:31:42;36.45;;;17.65;;
27305;SDS011;14792;50.886;6.468;2023-04-06T01:34:44;31.33;;;16.57;;
27305;SDS011;14792;50.886;6.468;2023-04-06T01:37:45;28.87;;;17.27;;
27305;SDS011;14792;50.886;6.468;2023-04-06T01:40:47;34.30;;;18.07;;
27305;SDS011;14792;50.886;6.468;2023-04-06T01:43:48;32.90;;;18.40;;
27305;SDS011;14792;50.886;6.468;2023-04-06T01:46:50;32.03;;;17.35;;
27305;SDS011;14792;50.886;6.468;2023-04-06T01:52:53;38.98;;;18.80;;
27305;SDS011;14792;50.886;6.468;2023-04-06T01:55:55;34.00;;;18.27;;
27305;SDS011;14792;50.886;6.468;2023-04-06T01:58:56;32.23;;;17.23;;
27305;SDS011;14792;50.886;6.468;2023-04-06T02:01:59;35.92;;;17.60;;
27305;SDS011;14792;50.886;6.468;2023-04-06T02:05:00;33.30;;;17.98;;
27305;SDS011;14792;50.886;6.468;2023-04-06T02:08:02;30.92;;;17.67;;
27305;SDS011;14792;50.886;6.468;2023-04-06T02:11:03;34.05;;;17.77;;
27305;SDS011;14792;50.886;6.468;2023-04-06T02:14:05;32.58;;;17.25;;
27305;SDS011;14792;50.886;6.468;2023-04-06T02:17:07;31.60;;;18.10;;
27305;SDS011;14792;50.886;6.468;2023-04-06T02:20:08;40.12;;;18.20;;
27305;SDS011;14792;50.886;6.468;2023-04-06T02:23:10;34.90;;;18.07;;
27305;SDS011;14792;50.886;6.468;2023-04-06T02:26:11;34.63;;;16.93;;
27305;SDS011;14792;50.886;6.468;2023-04-06T02:29:13;33.20;;;17.02;;
27305;SDS011;14792;50.886;6.468;2023-04-06T02:32:15;37.88;;;18.32;;
27305;SDS011;14792;50.886;6.468;2023-04-06T02:35:16;30.97;;;17.15;;
27305;SDS011;14792;50.886;6.468;2023-04-06T02:38:18;30.40;;;16.80;;
27305;SDS011;14792;50.886;6.468;2023-04-06T02:41:19;28.83;;;16.27;;
27305;SDS011;14792;50.886;6.468;2023-04-06T02:44:21;31.82;;;16.70;;
27305;SDS011;14792;50.886;6.468;2023-04-06T02:47:23;29.57;;;16.25;;
27305;SDS011;14792;50.886;6.468;2023-04-06T02:50:24;28.77;;;16.52;;
27305;SDS011;14792;50.886;6.468;2023-04-06T02:53:26;29.15;;;15.55;;
27305;SDS011;14792;50.886;6.468;2023-04-06T02:56:27;31.07;;;16.23;;
27305;SDS011;14792;50.886;6.468;2023-04-06T02:59:30;28.25;;;16.00;;
27305;SDS011;14792;50.886;6.468;2023-04-06T03:02:32;33.58;;;17.20;;
27305;SDS011;14792;50.886;6.468;2023-04-06T03:05:33;34.60;;;17.00;;
27305;SDS011;14792;50.886;6.468;2023-04-06T03:08:35;29.60;;;15.83;;
27305;SDS011;14792;50.886;6.468;2023-04-06T03:11:37;30.12;;;16.37;;
27305;SDS011;14792;50.886;6.468;2023-04-06T03:14:38;26.12;;;15.10;;
27305;SDS011;14792;50.886;6.468;2023-04-06T03:17:41;30.90;;;16.10;;
27305;SDS011;14792;50.886;6.468;2023-04-06T03:20:43;29.65;;;15.30;;
27305;SDS011;14792;50.886;6.468;2023-04-06T03:23:44;29.50;;;15.53;;
27305;SDS011;14792;50.886;6.468;2023-04-06T03:26:46;27.67;;;15.45;;
27305;SDS011;14792;50.886;6.468;2023-04-06T03:29:49;31.70;;;17.45;;
27305;SDS011;14792;50.886;6.468;2023-04-06T03:32:50;39.63;;;17.60;;
27305;SDS011;14792;50.886;6.468;2023-04-06T03:35:52;34.15;;;16.85;;
27305;SDS011;14792;50.886;6.468;2023-04-06T03:38:53;31.85;;;16.10;;
27305;SDS011;14792;50.886;6.468;2023-04-06T03:41:57;30.88;;;16.05;;
27305;SDS011;14792;50.886;6.468;2023-04-06T03:44:58;37.45;;;17.25;;
27305;SDS011;14792;50.886;6.468;2023-04-06T03:48:00;37.48;;;17.20;;
27305;SDS011;14792;50.886;6.468;2023-04-06T03:51:01;33.05;;;17.35;;
27305;SDS011;14792;50.886;6.468;2023-04-06T03:54:04;40.20;;;16.75;;
27305;SDS011;14792;50.886;6.468;2023-04-06T03:57:06;35.75;;;17.90;;
27305;SDS011;14792;50.886;6.468;2023-04-06T04:00:08;37.42;;;17.40;;
27305;SDS011;14792;50.886;6.468;2023-04-06T04:03:09;35.48;;;18.25;;
27305;SDS011;14792;50.886;6.468;2023-04-06T04:06:11;31.37;;;16.23;;
27305;SDS011;14792;50.886;6.468;2023-04-06T04:09:12;31.25;;;15.98;;
27305;SDS011;14792;50.886;6.468;2023-04-06T04:12:14;34.15;;;16.87;;
27305;SDS011;14792;50.886;6.468;2023-04-06T04:15:16;36.65;;;17.57;;
27305;SDS011;14792;50.886;6.468;2023-04-06T04:18:17;37.65;;;15.60;;
27305;SDS011;14792;50.886;6.468;2023-04-06T04:21:19;45.30;;;17.52;;
27305;SDS011;14792;50.886;6.468;2023-04-06T04:24:20;32.05;;;15.95;;
27305;SDS011;14792;50.886;6.468;2023-04-06T04:27:22;38.30;;;17.20;;
27305;SDS011;14792;50.886;6.468;2023-04-06T04:30:24;35.05;;;16.42;;
27305;SDS011;14792;50.886;6.468;2023-04-06T04:33:25;39.78;;;16.73;;
27305;SDS011;14792;50.886;6.468;2023-04-06T04:36:27;43.38;;;17.17;;
27305;SDS011;14792;50.886;6.468;2023-04-06T04:39:28;44.67;;;18.07;;
27305;SDS011;14792;50.886;6.468;2023-04-06T04:42:30;49.60;;;17.98;;
27305;SDS011;14792;50.886;6.468;2023-04-06T04:45:32;46.48;;;19.52;;
27305;SDS011;14792;50.886;6.468;2023-04-06T04:48:33;53.25;;;18.23;;
27305;SDS011;14792;50.886;6.468;2023-04-06T04:51:35;55.38;;;19.17;;
27305;SDS011;14792;50.886;6.468;2023-04-06T04:54:36;44.27;;;18.82;;
27305;SDS011;14792;50.886;6.468;2023-04-06T04:57:38;45.60;;;17.82;;
27305;SDS011;14792;50.886;6.468;2023-04-06T05:00:39;66.82;;;19.70;;
27305;SDS011;14792;50.886;6.468;2023-04-06T05:03:41;65.52;;;20.25;;
27305;SDS011;14792;50.886;6.468;2023-04-06T05:06:43;66.02;;;21.97;;
27305;SDS011;14792;50.886;6.468;2023-04-06T05:09:44;58.42;;;24.85;;
27305;SDS011;14792;50.886;6.468;2023-04-06T05:12:46;60.67;;;22.20;;
27305;SDS011;14792;50.886;6.468;2023-04-06T05:15:47;63.15;;;20.10;;
27305;SDS011;14792;50.886;6.468;2023-04-06T05:18:49;60.92;;;20.12;;
27305;SDS011;14792;50.886;6.468;2023-04-06T05:21:51;56.83;;;19.65;;
27305;SDS011;14792;50.886;6.468;2023-04-06T05:24:52;54.63;;;21.00;;
27305;SDS011;14792;50.886;6.468;2023-04-06T05:27:54;49.25;;;19.25;;
27305;SDS011;14792;50.886;6.468;2023-04-06T05:30:55;45.30;;;18.62;;
27305;SDS011;14792;50.886;6.468;2023-04-06T05:33:57;52.95;;;18.00;;
27305;SDS011;14792;50.886;6.468;2023-04-06T05:36:58;47.95;;;18.92;;
27305;SDS011;14792;50.886;6.468;2023-04-06T05:40:00;45.90;;;18.00;;
27305;SDS011;14792;50.886;6.468;2023-04-06T05:43:02;49.45;;;18.80;;
27305;SDS011;14792;50.886;6.468;2023-04-06T05:46:03;57.60;;;19.73;;
27305;SDS011;14792;50.886;6.468;2023-04-06T05:49:05;50.15;;;19.95;;
27305;SDS011;14792;50.886;6.468;2023-04-06T05:52:06;51.00;;;20.92;;
27305;SDS011;14792;50.886;6.468;2023-04-06T05:55:08;64.05;;;20.68;;
27305;SDS011;14792;50.886;6.468;2023-04-06T05:58:10;56.37;;;20.12;;
27305;SDS011;14792;50.886;6.468;2023-04-06T06:01:11;65.62;;;20.20;;
27305;SDS011;14792;50.886;6.468;2023-04-06T06:04:13;73.47;;;21.05;;
27305;SDS011;14792;50.886;6.468;2023-04-06T06:07:14;73.85;;;20.30;;
27305;SDS011;14792;50.886;6.468;2023-04-06T06:10:16;65.17;;;20.75;;
27305;SDS011;14792;50.886;6.468;2023-04-06T06:13:18;61.33;;;20.43;;
27305;SDS011;14792;50.886;6.468;2023-04-06T06:16:19;73.30;;;19.98;;
27305;SDS011;14792;50.886;6.468;2023-04-06T06:19:21;77.72;;;21.85;;
27305;SDS011;14792;50.886;6.468;2023-04-06T06:22:22;75.62;;;19.98;;
27305;SDS011;14792;50.886;6.468;2023-04-06T06:25:24;73.78;;;20.43;;
27305;SDS011;14792;50.886;6.468;2023-04-06T06:28:26;68.60;;;19.30;;
27305;SDS011;14792;50.886;6.468;2023-04-06T06:31:27;75.03;;;20.43;;
27305;SDS011;14792;50.886;6.468;2023-04-06T06:34:29;70.45;;;20.20;;
27305;SDS011;14792;50.886;6.468;2023-04-06T06:37:30;78.30;;;20.05;;
27305;SDS011;14792;50.886;6.468;2023-04-06T06:40:32;74.45;;;19.00;;
27305;SDS011;14792;50.886;6.468;2023-04-06T06:43:33;65.90;;;20.72;;
27305;SDS011;14792;50.886;6.468;2023-04-06T06:46:35;68.57;;;21.73;;
27305;SDS011;14792;50.886;6.468;2023-04-06T06:49:37;59.30;;;19.95;;
27305;SDS011;14792;50.886;6.468;2023-04-06T06:52:39;62.93;;;18.98;;
27305;SDS011;14792;50.886;6.468;2023-04-06T06:55:40;66.22;;;19.37;;
27305;SDS011;14792;50.886;6.468;2023-04-06T06:58:41;62.15;;;19.50;;
27305;SDS011;14792;50.886;6.468;2023-04-06T07:01:43;58.15;;;18.82;;
27305;SDS011;14792;50.886;6.468;2023-04-06T07:04:47;67.25;;;19.32;;
27305;SDS011;14792;50.886;6.468;2023-04-06T07:07:46;54.90;;;18.55;;
27305;SDS011;14792;50.886;6.468;2023-04-06T07:10:48;48.40;;;17.15;;
27305;SDS011;14792;50.886;6.468;2023-04-06T07:13:49;50.35;;;18.37;;
27305;SDS011;14792;50.886;6.468;2023-04-06T07:16:51;44.60;;;17.02;;
27305;SDS011;14792;50.886;6.468;2023-04-06T07:19:52;41.20;;;16.00;;
27305;SDS011;14792;50.886;6.468;2023-04-06T07:22:54;43.33;;;16.75;;
27305;SDS011;14792;50.886;6.468;2023-04-06T07:25:56;41.65;;;17.20;;
27305;SDS011;14792;50.886;6.468;2023-04-06T07:28:57;36.30;;;14.78;;
27305;SDS011;14792;50.886;6.468;2023-04-06T07:31:59;48.02;;;15.83;;
27305;SDS011;14792;50.886;6.468;2023-04-06T07:35:00;44.03;;;15.83;;
27305;SDS011;14792;50.886;6.468;2023-04-06T07:38:02;39.35;;;14.95;;
27305;SDS011;14792;50.886;6.468;2023-04-06T07:41:04;46.70;;;15.58;;
27305;SDS011;14792;50.886;6.468;2023-04-06T07:44:05;41.60;;;16.50;;
27305;SDS011;14792;50.886;6.468;2023-04-06T07:47:07;34.18;;;14.80;;
27305;SDS011;14792;50.886;6.468;2023-04-06T07:50:08;54.18;;;16.93;;
27305;SDS011;14792;50.886;6.468;2023-04-06T07:53:10;105.75;;;20.95;;
27305;SDS011;14792;50.886;6.468;2023-04-06T07:56:12;45.05;;;16.65;;
27305;SDS011;14792;50.886;6.468;2023-04-06T07:59:13;46.95;;;15.55;;
27305;SDS011;14792;50.886;6.468;2023-04-06T08:02:15;42.83;;;14.20;;
27305;SDS011;14792;50.886;6.468;2023-04-06T08:05:16;41.33;;;15.43;;
27305;SDS011;14792;50.886;6.468;2023-04-06T08:08:18;39.33;;;14.65;;
27305;SDS011;14792;50.886;6.468;2023-04-06T08:11:20;37.63;;;15.32;;
27305;SDS011;14792;50.886;6.468;2023-04-06T08:14:21;41.65;;;14.43;;
27305;SDS011;14792;50.886;6.468;2023-04-06T08:17:23;42.00;;;13.83;;
27305;SDS011;14792;50.886;6.468;2023-04-06T08:20:24;40.15;;;14.75;;
27305;SDS011;14792;50.886;6.468;2023-04-06T08:23:26;41.92;;;14.85;;
27305;SDS011;14792;50.886;6.468;2023-04-06T08:26:27;40.40;;;14.75;;
27305;SDS011;14792;50.886;6.468;2023-04-06T08:29:29;44.15;;;15.78;;
27305;SDS011;14792;50.886;6.468;2023-04-06T08:32:31;42.83;;;14.50;;
27305;SDS011;14792;50.886;6.468;2023-04-06T08:35:32;41.88;;;14.78;;
27305;SDS011;14792;50.886;6.468;2023-04-06T08:38:34;35.35;;;14.80;;
27305;SDS011;14792;50.886;6.468;2023-04-06T08:41:35;53.80;;;14.85;;
27305;SDS011;14792;50.886;6.468;2023-04-06T08:44:37;38.73;;;14.00;;
27305;SDS011;14792;50.886;6.468;2023-04-06T08:47:39;41.20;;;14.93;;
27305;SDS011;14792;50.886;6.468;2023-04-06T08:50:40;36.30;;;15.63;;
27305;SDS011;14792;50.886;6.468;2023-04-06T08:53:43;35.13;;;14.40;;
27305;SDS011;14792;50.886;6.468;2023-04-06T08:56:45;36.20;;;13.90;;
27305;SDS011;14792;50.886;6.468;2023-04-06T08:59:46;29.45;;;14.47;;
27305;SDS011;14792;50.886;6.468;2023-04-06T09:02:49;30.32;;;13.90;;
27305;SDS011;14792;50.886;6.468;2023-04-06T09:05:50;32.70;;;13.62;;
27305;SDS011;14792;50.886;6.468;2023-04-06T09:08:52;32.85;;;14.90;;
27305;SDS011;14792;50.886;6.468;2023-04-06T09:11:53;28.73;;;13.40;;
27305;SDS011;14792;50.886;6.468;2023-04-06T09:14:55;38.00;;;13.85;;
27305;SDS011;14792;50.886;6.468;2023-04-06T09:17:56;24.35;;;12.88;;
27305;SDS011;14792;50.886;6.468;2023-04-06T09:21:01;27.37;;;13.45;;
27305;SDS011;14792;50.886;6.468;2023-04-06T09:24:03;57.00;;;16.32;;
27305;SDS011;14792;50.886;6.468;2023-04-06T09:27:04;30.17;;;12.88;;
27305;SDS011;14792;50.886;6.468;2023-04-06T09:30:06;30.70;;;13.88;;
27305;SDS011;14792;50.886;6.468;2023-04-06T09:33:07;24.12;;;12.95;;
27305;SDS011;14792;50.886;6.468;2023-04-06T09:36:09;32.08;;;12.95;;
27305;SDS011;14792;50.886;6.468;2023-04-06T09:39:10;31.65;;;13.13;;
27305;SDS011;14792;50.886;6.468;2023-04-06T09:42:23;28.57;;;12.75;;
27305;SDS011;14792;50.886;6.468;2023-04-06T09:45:28;25.45;;;11.93;;
27305;SDS011;14792;50.886;6.468;2023-04-06T09:48:30;28.75;;;12.58;;
27305;SDS011;14792;50.886;6.468;2023-04-06T09:51:45;26.02;;;12.15;;
27305;SDS011;14792;50.886;6.468;2023-04-06T09:54:39;28.00;;;12.53;;
27305;SDS011;14792;50.886;6.468;2023-04-06T09:57:50;22.30;;;11.68;;
27305;SDS011;14792;50.886;6.468;2023-04-06T10:01:05;22.95;;;11.43;;
27305;SDS011;14792;50.886;6.468;2023-04-06T10:04:19;23.00;;;12.60;;
27305;SDS011;14792;50.886;6.468;2023-04-06T10:10:28;22.17;;;11.78;;
27305;SDS011;14792;50.886;6.468;2023-04-06T10:13:30;23.75;;;11.70;;
27305;SDS011;14792;50.886;6.468;2023-04-06T10:16:31;23.10;;;13.65;;
27305;SDS011;14792;50.886;6.468;2023-04-06T10:19:37;23.40;;;12.30;;
27305;SDS011;14792;50.886;6.468;2023-04-06T10:22:41;25.92;;;12.95;;
27305;SDS011;14792;50.886;6.468;2023-04-06T10:29:01;29.60;;;11.80;;
27305;SDS011;14792;50.886;6.468;2023-04-06T10:31:57;33.58;;;12.25;;
27305;SDS011;14792;50.886;6.468;2023-04-06T10:35:08;24.80;;;12.18;;
27305;SDS011;14792;50.886;6.468;2023-04-06T10:38:06;26.93;;;12.95;;
27305;SDS011;14792;50.886;6.468;2023-04-06T10:41:09;31.55;;;11.95;;
27305;SDS011;14792;50.886;6.468;2023-04-06T10:44:31;24.37;;;13.08;;
27305;SDS011;14792;50.886;6.468;2023-04-06T10:47:20;29.40;;;12.70;;
27305;SDS011;14792;50.886;6.468;2023-04-06T10:50:21;26.40;;;13.50;;
27305;SDS011;14792;50.886;6.468;2023-04-06T10:53:25;26.20;;;14.98;;
27305;SDS011;14792;50.886;6.468;2023-04-06T10:56:27;23.50;;;14.95;;
27305;SDS011;14792;50.886;6.468;2023-04-06T10:59:29;25.72;;;14.50;;
27305;SDS011;14792;50.886;6.468;2023-04-06T11:02:30;24.85;;;12.82;;
27305;SDS011;14792;50.886;6.468;2023-04-06T11:05:32;21.95;;;12.28;;
27305;SDS011;14792;50.886;6.468;2023-04-06T11:08:33;25.32;;;13.35;;
27305;SDS011;14792;50.886;6.468;2023-04-06T11:11:38;20.15;;;12.13;;
27305;SDS011;14792;50.886;6.468;2023-04-06T11:14:39;18.50;;;12.20;;
27305;SDS011;14792;50.886;6.468;2023-04-06T11:17:41;21.85;;;12.98;;
27305;SDS011;14792;50.886;6.468;2023-04-06T11:20:47;20.40;;;11.63;;
27305;SDS011;14792;50.886;6.468;2023-04-06T11:23:44;15.30;;;10.00;;
27305;SDS011;14792;50.886;6.468;2023-04-06T11:29:50;15.20;;;10.55;;
27305;SDS011;14792;50.886;6.468;2023-04-06T11:32:52;15.98;;;10.70;;
27305;SDS011;14792;50.886;6.468;2023-04-06T11:35:56;20.72;;;14.13;;
27305;SDS011;14792;50.886;6.468;2023-04-06T11:38:56;29.23;;;13.22;;
27305;SDS011;14792;50.886;6.468;2023-04-06T11:41:57;29.30;;;16.95;;
27305;SDS011;14792;50.886;6.468;2023-04-06T11:44:59;15.90;;;9.05;;
27305;SDS011;14792;50.886;6.468;2023-04-06T11:48:00;20.15;;;7.92;;
27305;SDS011;14792;50.886;6.468;2023-04-06T11:51:02;18.82;;;9.28;;
27305;SDS011;14792;50.886;6.468;2023-04-06T11:54:03;14.38;;;8.78;;
27305;SDS011;14792;50.886;6.468;2023-04-06T11:57:05;12.23;;;8.48;;
27305;SDS011;14792;50.886;6.468;2023-04-06T12:00:07;17.25;;;7.55;;
27305;SDS011;14792;50.886;6.468;2023-04-06T12:03:08;15.03;;;7.80;;
27305;SDS011;14792;50.886;6.468;2023-04-06T12:06:10;12.23;;;7.17;;
27305;SDS011;14792;50.886;6.468;2023-04-06T12:09:12;10.43;;;5.12;;
27305;SDS011;14792;50.886;6.468;2023-04-06T12:12:13;11.63;;;6.22;;
27305;SDS011;14792;50.886;6.468;2023-04-06T12:15:15;11.18;;;6.72;;
27305;SDS011;14792;50.886;6.468;2023-04-06T12:18:16;8.58;;;5.87;;
27305;SDS011;14792;50.886;6.468;2023-04-06T12:21:18;9.40;;;6.08;;
27305;SDS011;14792;50.886;6.468;2023-04-06T12:24:20;19.57;;;7.28;;
27305;SDS011;14792;50.886;6.468;2023-04-06T12:27:21;10.25;;;6.65;;
27305;SDS011;14792;50.886;6.468;2023-04-06T12:30:23;11.22;;;7.75;;
27305;SDS011;14792;50.886;6.468;2023-04-06T12:33:24;17.45;;;7.33;;
27305;SDS011;14792;50.886;6.468;2023-04-06T12:36:26;11.88;;;7.28;;
27305;SDS011;14792;50.886;6.468;2023-04-06T12:39:27;13.60;;;6.78;;
27305;SDS011;14792;50.886;6.468;2023-04-06T12:42:29;13.13;;;6.95;;
27305;SDS011;14792;50.886;6.468;2023-04-06T12:45:31;11.68;;;8.03;;
27305;SDS011;14792;50.886;6.468;2023-04-06T12:48:32;12.45;;;8.25;;
27305;SDS011;14792;50.886;6.468;2023-04-06T12:51:34;15.48;;;8.68;;
27305;SDS011;14792;50.886;6.468;2023-04-06T12:54:35;12.90;;;7.30;;
27305;SDS011;14792;50.886;6.468;2023-04-06T12:57:37;13.03;;;8.58;;
27305;SDS011;14792;50.886;6.468;2023-04-06T13:00:39;15.60;;;8.15;;
27305;SDS011;14792;50.886;6.468;2023-04-06T13:03:40;13.35;;;7.83;;
27305;SDS011;14792;50.886;6.468;2023-04-06T13:06:42;15.45;;;8.73;;
27305;SDS011;14792;50.886;6.468;2023-04-06T13:09:43;16.17;;;9.58;;
27305;SDS011;14792;50.886;6.468;2023-04-06T13:12:45;15.25;;;9.18;;
27305;SDS011;14792;50.886;6.468;2023-04-06T13:15:47;25.97;;;12.82;;
27305;SDS011;14792;50.886;6.468;2023-04-06T13:18:48;16.65;;;10.80;;
27305;SDS011;14792;50.886;6.468;2023-04-06T13:21:50;23.60;;;10.90;;
27305;SDS011;14792;50.886;6.468;2023-04-06T13:27:59;15.13;;;8.88;;
27305;SDS011;14792;50.886;6.468;2023-04-06T13:31:01;13.98;;;8.23;;
27305;SDS011;14792;50.886;6.468;2023-04-06T13:34:02;16.07;;;9.55;;
27305;SDS011;14792;50.886;6.468;2023-04-06T13:37:04;14.15;;;9.03;;
27305;SDS011;14792;50.886;6.468;2023-04-06T13:40:06;15.80;;;9.65;;
27305;SDS011;14792;50.886;6.468;2023-04-06T13:43:07;16.65;;;9.18;;
27305;SDS011;14792;50.886;6.468;2023-04-06T13:46:09;15.28;;;9.58;;
27305;SDS011;14792;50.886;6.468;2023-04-06T13:49:11;18.30;;;10.63;;
27305;SDS011;14792;50.886;6.468;2023-04-06T13:52:12;16.10;;;9.80;;
27305;SDS011;14792;50.886;6.468;2023-04-06T13:55:14;17.35;;;9.20;;
27305;SDS011;14792;50.886;6.468;2023-04-06T13:58:15;13.48;;;8.65;;
27305;SDS011;14792;50.886;6.468;2023-04-06T14:01:17;14.03;;;8.78;;
27305;SDS011;14792;50.886;6.468;2023-04-06T14:04:19;15.80;;;9.35;;
27305;SDS011;14792;50.886;6.468;2023-04-06T14:07:20;18.00;;;10.05;;
27305;SDS011;14792;50.886;6.468;2023-04-06T14:10:22;16.48;;;9.55;;
27305;SDS011;14792;50.886;6.468;2023-04-06T14:13:23;16.05;;;10.25;;
27305;SDS011;14792;50.886;6.468;2023-04-06T14:16:25;16.27;;;10.50;;
27305;SDS011;14792;50.886;6.468;2023-04-06T14:19:27;15.85;;;10.68;;
27305;SDS011;14792;50.886;6.468;2023-04-06T14:22:28;25.90;;;15.98;;
27305;SDS011;14792;50.886;6.468;2023-04-06T14:25:30;15.30;;;9.95;;
27305;SDS011;14792;50.886;6.468;2023-04-06T14:28:35;17.55;;;11.68;;
27305;SDS011;14792;50.886;6.468;2023-04-06T14:31:37;17.32;;;11.33;;
27305;SDS011;14792;50.886;6.468;2023-04-06T14:34:38;19.98;;;11.73;;
27305;SDS011;14792;50.886;6.468;2023-04-06T14:37:40;15.63;;;9.60;;
27305;SDS011;14792;50.886;6.468;2023-04-06T14:40:42;15.90;;;10.13;;
27305;SDS011;14792;50.886;6.468;2023-04-06T14:43:44;14.05;;;8.60;;
27305;SDS011;14792;50.886;6.468;2023-04-06T14:46:45;14.85;;;8.85;;
27305;SDS011;14792;50.886;6.468;2023-04-06T14:49:49;9.95;;;6.55;;
27305;SDS011;14792;50.886;6.468;2023-04-06T14:52:48;10.58;;;7.42;;
27305;SDS011;14792;50.886;6.468;2023-04-06T14:55:50;10.70;;;7.10;;
27305;SDS011;14792;50.886;6.468;2023-04-06T14:58:51;9.20;;;7.10;;
27305;SDS011;14792;50.886;6.468;2023-04-06T15:01:53;11.30;;;6.80;;
27305;SDS011;14792;50.886;6.468;2023-04-06T15:04:54;7.95;;;5.58;;
27305;SDS011;14792;50.886;6.468;2023-04-06T15:07:56;10.05;;;6.55;;
27305;SDS011;14792;50.886;6.468;2023-04-06T15:10:58;9.58;;;6.42;;
27305;SDS011;14792;50.886;6.468;2023-04-06T15:13:59;9.70;;;6.92;;
27305;SDS011;14792;50.886;6.468;2023-04-06T15:17:01;10.25;;;7.17;;
27305;SDS011;14792;50.886;6.468;2023-04-06T15:20:02;35.58;;;21.62;;
27305;SDS011;14792;50.886;6.468;2023-04-06T15:23:04;9.75;;;7.08;;
27305;SDS011;14792;50.886;6.468;2023-04-06T15:26:06;11.30;;;7.35;;
27305;SDS011;14792;50.886;6.468;2023-04-06T15:29:07;10.23;;;7.35;;
27305;SDS011;14792;50.886;6.468;2023-04-06T15:32:09;11.00;;;7.20;;
27305;SDS011;14792;50.886;6.468;2023-04-06T15:35:10;12.43;;;8.10;;
27305;SDS011;14792;50.886;6.468;2023-04-06T15:38:12;14.65;;;9.08;;
27305;SDS011;14792;50.886;6.468;2023-04-06T15:41:14;12.73;;;8.63;;
27305;SDS011;14792;50.886;6.468;2023-04-06T15:44:15;12.05;;;8.63;;
27305;SDS011;14792;50.886;6.468;2023-04-06T15:47:17;10.68;;;7.58;;
27305;SDS011;14792;50.886;6.468;2023-04-06T15:50:19;11.10;;;7.80;;
27305;SDS011;14792;50.886;6.468;2023-04-06T15:53:20;12.82;;;8.08;;
27305;SDS011;14792;50.886;6.468;2023-04-06T15:56:22;14.05;;;8.83;;
27305;SDS011;14792;50.886;6.468;2023-04-06T15:59:23;11.50;;;7.75;;
27305;SDS011;14792;50.886;6.468;2023-04-06T16:02:25;10.05;;;7.20;;
27305;SDS011;14792;50.886;6.468;2023-04-06T16:05:28;10.32;;;8.08;;
27305;SDS011;14792;50.886;6.468;2023-04-06T16:08:28;10.78;;;7.37;;
27305;SDS011;14792;50.886;6.468;2023-04-06T16:11:30;13.45;;;7.80;;
27305;SDS011;14792;50.886;6.468;2023-04-06T16:14:31;16.07;;;8.98;;
27305;SDS011;14792;50.886;6.468;2023-04-06T16:17:33;16.70;;;9.83;;
27305;SDS011;14792;50.886;6.468;2023-04-06T16:20:34;14.05;;;9.78;;
27305;SDS011;14792;50.886;6.468;2023-04-06T16:23:36;17.85;;;10.65;;
27305;SDS011;14792;50.886;6.468;2023-04-06T16:26:38;13.72;;;8.85;;
27305;SDS011;14792;50.886;6.468;2023-04-06T16:29:39;21.70;;;11.45;;
27305;SDS011;14792;50.886;6.468;2023-04-06T16:32:41;15.13;;;9.85;;
27305;SDS011;14792;50.886;6.468;2023-04-06T16:35:43;19.48;;;10.93;;
27305;SDS011;14792;50.886;6.468;2023-04-06T16:38:44;14.58;;;8.90;;
27305;SDS011;14792;50.886;6.468;2023-04-06T16:41:46;9.65;;;6.92;;
27305;SDS011;14792;50.886;6.468;2023-04-06T16:47:49;7.97;;;4.67;;
27305;SDS011;14792;50.886;6.468;2023-04-06T16:50:50;6.33;;;4.70;;
27305;SDS011;14792;50.886;6.468;2023-04-06T16:53:52;7.75;;;4.47;;
27305;SDS011;14792;50.886;6.468;2023-04-06T16:56:54;8.35;;;5.05;;
27305;SDS011;14792;50.886;6.468;2023-04-06T16:59:55;5.80;;;4.00;;
27305;SDS011;14792;50.886;6.468;2023-04-06T17:02:57;6.17;;;4.17;;
27305;SDS011;14792;50.886;6.468;2023-04-06T17:05:58;7.70;;;4.55;;
27305;SDS011;14792;50.886;6.468;2023-04-06T17:09:00;5.00;;;3.10;;
27305;SDS011;14792;50.886;6.468;2023-04-06T17:12:01;6.25;;;3.87;;
27305;SDS011;14792;50.886;6.468;2023-04-06T17:15:03;6.20;;;3.67;;
27305;SDS011;14792;50.886;6.468;2023-04-06T17:18:05;5.15;;;3.12;;
27305;SDS011;14792;50.886;6.468;2023-04-06T17:21:07;11.35;;;5.37;;
27305;SDS011;14792;50.886;6.468;2023-04-06T17:24:08;8.63;;;4.42;;
27305;SDS011;14792;50.886;6.468;2023-04-06T17:27:09;17.02;;;7.47;;
27305;SDS011;14792;50.886;6.468;2023-04-06T17:30:11;9.25;;;4.58;;
27305;SDS011;14792;50.886;6.468;2023-04-06T17:33:13;5.55;;;3.83;;
27305;SDS011;14792;50.886;6.468;2023-04-06T17:36:14;11.45;;;5.10;;
27305;SDS011;14792;50.886;6.468;2023-04-06T17:39:16;7.10;;;4.50;;
27305;SDS011;14792;50.886;6.468;2023-04-06T17:42:17;8.33;;;4.33;;
27305;SDS011;14792;50.886;6.468;2023-04-06T17:45:19;3.72;;;2.85;;
27305;SDS011;14792;50.886;6.468;2023-04-06T17:48:20;6.17;;;3.25;;
27305;SDS011;14792;50.886;6.468;2023-04-06T17:51:22;5.58;;;3.98;;
27305;SDS011;14792;50.886;6.468;2023-04-06T17:54:24;4.53;;;3.05;;
27305;SDS011;14792;50.886;6.468;2023-04-06T17:57:27;5.05;;;3.90;;
27305;SDS011;14792;50.886;6.468;2023-04-06T18:00:28;4.20;;;2.85;;
27305;SDS011;14792;50.886;6.468;2023-04-06T18:03:30;5.30;;;2.70;;
27305;SDS011;14792;50.886;6.468;2023-04-06T18:06:31;5.80;;;3.70;;